createdAt,value
2018-11-22T00:01:17.013Z,76.31
2018-11-22T00:03:55.153Z,76.32
2018-11-22T00:06:29.106Z,76.34
2018-11-22T00:09:02.051Z,76.29
2018-11-22T00:11:35.832Z,76.34
2018-11-22T00:14:09.886Z,76.33
2018-11-22T00:16:42.932Z,76.35
2018-11-22T00:19:16.242Z,76.27
2018-11-22T00:21:49.730Z,76.23
2018-11-22T00:24:23.484Z,76.24
2018-11-22T00:26:59.242Z,76.25
2018-11-22T00:29:33.457Z,76.27
2018-11-22T00:32:06.596Z,76.26
2018-11-22T00:34:41.485Z,76.27
2018-11-22T00:37:14.979Z,76.21
2018-11-22T00:39:47.959Z,76.22
2018-11-22T00:42:22.239Z,76.24
2018-11-22T00:44:55.913Z,76.28
2018-11-22T00:47:29.286Z,76.25
2018-11-22T00:50:02.963Z,76.31
2018-11-22T00:52:35.740Z,76.26
2018-11-22T00:55:13.029Z,76.22
2018-11-22T00:57:48.006Z,76.13
2018-11-22T01:00:25.153Z,76.16
2018-11-22T01:02:58.431Z,76.15
2018-11-22T01:05:31.276Z,76.10
2018-11-22T01:08:04.098Z,76.09
2018-11-22T01:10:37.872Z,76.04
2018-11-22T01:13:12.019Z,76.03
2018-11-22T01:15:45.215Z,76.00
2018-11-22T01:18:17.905Z,75.99
2018-11-22T01:20:52.284Z,75.98
2018-11-22T01:23:25.113Z,75.94
2018-11-22T01:25:58.068Z,75.90
2018-11-22T01:28:31.213Z,75.97
2018-11-22T01:31:04.421Z,76.02
2018-11-22T01:33:37.269Z,76.03
2018-11-22T01:36:11.680Z,76.02
2018-11-22T01:38:44.751Z,76.01
2018-11-22T01:41:18.207Z,76.05
2018-11-22T01:43:51.484Z,76.10
2018-11-22T01:46:24.974Z,76.11
2018-11-22T01:48:57.814Z,76.10
2018-11-22T01:51:31.085Z,76.09
2018-11-22T01:54:03.786Z,76.10
2018-11-22T01:56:36.925Z,76.18
2018-11-22T01:59:10.155Z,76.19
2018-11-22T02:01:43.056Z,76.21
2018-11-22T02:04:15.894Z,76.18
2018-11-22T02:06:49.312Z,76.17
2018-11-22T02:09:22.075Z,76.26
2018-11-22T02:11:55.256Z,76.35
2018-11-22T02:14:28.488Z,76.36
2018-11-22T02:17:01.633Z,76.46
2018-11-22T02:19:34.503Z,76.46
2018-11-22T02:22:08.232Z,76.50
2018-11-22T02:24:41.057Z,76.46
2018-11-22T02:27:14.301Z,76.48
2018-11-22T02:29:48.583Z,76.52
2018-11-22T02:32:21.842Z,76.49
2018-11-22T02:34:54.626Z,76.52
2018-11-22T02:37:28.040Z,76.55
2018-11-22T02:40:00.853Z,76.59
2018-11-22T02:42:33.605Z,76.70
2018-11-22T02:45:12.718Z,76.68
2018-11-22T02:47:46.042Z,76.67
2018-11-22T02:50:20.158Z,76.67
2018-11-22T02:52:54.215Z,76.77
2018-11-22T02:55:26.948Z,76.80
2018-11-22T02:57:59.717Z,76.79
2018-11-22T03:00:39.361Z,76.75
2018-11-22T03:03:13.393Z,76.79
2018-11-22T03:05:46.108Z,76.77
2018-11-22T03:08:20.493Z,76.81
2018-11-22T03:10:53.272Z,76.83
2018-11-22T03:13:25.995Z,76.87
2018-11-22T03:16:01.100Z,76.88
2018-11-22T03:18:33.885Z,76.90
2018-11-22T03:21:06.890Z,76.97
2018-11-22T03:23:40.246Z,77.04
2018-11-22T03:26:13.073Z,77.06
2018-11-22T03:28:46.018Z,77.04
2018-11-22T03:31:19.315Z,77.05
2018-11-22T03:33:52.109Z,77.08
2018-11-22T03:36:24.920Z,77.08
2018-11-22T03:38:58.585Z,77.17
2018-11-22T03:41:31.501Z,77.30
2018-11-22T03:44:04.457Z,77.36
2018-11-22T03:46:37.842Z,77.41
2018-11-22T03:49:10.648Z,77.47
2018-11-22T03:51:43.425Z,77.52
2018-11-22T03:54:16.823Z,77.50
2018-11-22T03:56:49.565Z,77.50
2018-11-22T03:59:22.423Z,77.52
2018-11-22T04:01:55.570Z,77.53
2018-11-22T04:04:29.165Z,77.53
2018-11-22T04:07:01.974Z,77.52
2018-11-22T04:09:35.387Z,77.54
2018-11-22T04:12:08.382Z,77.55
2018-11-22T04:14:41.398Z,77.72
2018-11-22T04:17:15.127Z,77.82
2018-11-22T04:19:47.885Z,77.87
2018-11-22T04:22:20.732Z,77.94
2018-11-22T04:24:54.078Z,77.97
2018-11-22T04:27:26.925Z,78.05
2018-11-22T04:30:00.814Z,78.11
2018-11-22T04:32:35.129Z,78.20
2018-11-22T04:35:12.299Z,78.31
2018-11-22T04:37:45.341Z,78.37
2018-11-22T04:40:20.281Z,78.41
2018-11-22T04:42:53.705Z,78.49
2018-11-22T04:45:27.047Z,78.52
2018-11-22T04:48:02.186Z,78.50
2018-11-22T04:50:37.642Z,78.68
2018-11-22T04:53:10.485Z,78.72
2018-11-22T04:55:43.929Z,78.74
2018-11-22T04:58:17.038Z,78.82
2018-11-22T05:00:50.161Z,78.88
2018-11-22T05:03:23.317Z,78.94
2018-11-22T05:05:56.630Z,79.01
2018-11-22T05:08:29.493Z,79.10
2018-11-22T05:11:02.848Z,79.16
2018-11-22T05:13:35.554Z,79.15
2018-11-22T05:16:08.398Z,79.27
2018-11-22T05:18:41.586Z,79.26
2018-11-22T05:21:14.788Z,79.25
2018-11-22T05:23:47.593Z,79.32
2018-11-22T05:26:20.925Z,79.42
2018-11-22T05:28:53.770Z,79.44
2018-11-22T05:31:26.449Z,79.48
2018-11-22T05:34:00.973Z,79.49
2018-11-22T05:36:34.266Z,79.53
2018-11-22T05:39:09.868Z,79.61
2018-11-22T05:41:45.160Z,79.68
2018-11-22T05:44:17.965Z,79.76
2018-11-22T05:46:51.192Z,79.73
2018-11-22T05:49:24.054Z,79.74
2018-11-22T05:51:57.228Z,79.85
2018-11-22T05:54:31.612Z,79.87
2018-11-22T05:57:04.612Z,79.85
2018-11-22T05:59:39.917Z,79.90
2018-11-22T06:02:14.284Z,79.95
2018-11-22T06:04:47.505Z,79.95
2018-11-22T06:07:21.502Z,80.08
2018-11-22T06:09:54.681Z,80.12
2018-11-22T06:12:27.525Z,80.18
2018-11-22T06:15:02.964Z,80.12
2018-11-22T06:17:36.028Z,80.14
2018-11-22T06:20:14.921Z,80.33
2018-11-22T06:22:48.349Z,80.51
2018-11-22T06:25:21.693Z,80.39
2018-11-22T06:27:56.120Z,80.42
2018-11-22T06:30:31.376Z,80.43
2018-11-22T06:33:05.336Z,80.49
2018-11-22T06:35:38.525Z,80.46
2018-11-22T06:38:12.152Z,80.47
2018-11-22T06:40:45.481Z,80.52
2018-11-22T06:43:18.976Z,80.52
2018-11-22T06:45:51.860Z,80.57
2018-11-22T06:48:24.732Z,80.56
2018-11-22T06:50:58.300Z,80.53
2018-11-22T06:53:30.520Z,80.54
2018-11-22T06:56:04.900Z,80.56
2018-11-22T06:58:37.853Z,80.53
2018-11-22T07:01:14.288Z,80.54
2018-11-22T07:03:49.773Z,80.51
2018-11-22T07:06:22.586Z,80.51
2018-11-22T07:08:55.751Z,80.46
2018-11-22T07:11:30.816Z,80.38
2018-11-22T07:14:06.432Z,80.43
2018-11-22T07:16:39.786Z,80.39
2018-11-22T07:19:14.096Z,80.26
2018-11-22T07:21:47.857Z,80.33
2018-11-22T07:24:21.535Z,80.36
2018-11-22T07:26:54.932Z,80.32
2018-11-22T07:29:29.697Z,80.25
2018-11-22T07:32:03.243Z,80.22
2018-11-22T07:34:38.244Z,80.17
2018-11-22T07:37:15.398Z,80.17
2018-11-22T07:39:48.709Z,80.13
2018-11-22T07:42:21.958Z,80.13
2018-11-22T07:44:55.800Z,80.13
2018-11-22T07:47:39.099Z,80.06
2018-11-22T07:50:15.856Z,79.91
2018-11-22T07:52:49.927Z,79.82
2018-11-22T07:55:23.686Z,79.61
2018-11-22T07:57:57.389Z,79.49
2018-11-22T08:00:32.004Z,79.42
2018-11-22T08:03:04.858Z,79.34
2018-11-22T08:05:41.132Z,79.28
2018-11-22T08:08:14.257Z,79.26
2018-11-22T08:10:47.256Z,79.17
2018-11-22T08:13:21.160Z,78.73
2018-11-22T08:15:54.390Z,78.67
2018-11-22T08:18:30.851Z,78.74
2018-11-22T08:21:20.299Z,78.47
2018-11-22T08:23:54.205Z,78.23
2018-11-22T08:26:27.262Z,77.80
2018-11-22T08:29:01.287Z,77.56
2018-11-22T08:31:34.506Z,77.50
2018-11-22T08:34:09.082Z,77.16
2018-11-22T08:36:45.040Z,77.07
2018-11-22T08:39:18.374Z,76.66
2018-11-22T08:41:54.574Z,76.57
2018-11-22T08:44:29.439Z,76.57
2018-11-22T08:47:02.865Z,76.49
2018-11-22T08:49:38.469Z,76.07
2018-11-22T08:52:12.771Z,75.54
2018-11-22T08:54:47.689Z,75.53
2018-11-22T08:57:21.311Z,75.47
2018-11-22T08:59:54.105Z,75.37
2018-11-22T09:02:28.070Z,75.25
2018-11-22T09:05:01.456Z,74.93
2018-11-22T09:07:34.509Z,74.41
2018-11-22T09:10:14.830Z,74.04
2018-11-22T09:12:53.020Z,74.22
2018-11-22T09:15:31.446Z,74.47
2018-11-22T09:18:06.908Z,74.52
2018-11-22T09:20:40.424Z,74.52
2018-11-22T09:23:13.740Z,74.24
2018-11-22T09:25:46.949Z,74.13
2018-11-22T09:28:21.695Z,74.08
2018-11-22T09:30:56.052Z,74.18
2018-11-22T09:33:29.191Z,73.55
2018-11-22T09:36:03.487Z,73.25
2018-11-22T09:38:37.268Z,73.19
2018-11-22T09:41:10.652Z,73.20
2018-11-22T09:43:45.891Z,73.31
2018-11-22T09:46:20.158Z,73.36
2018-11-22T09:48:53.692Z,73.42
2018-11-22T09:51:28.234Z,73.43
2018-11-22T09:54:01.496Z,73.23
2018-11-22T09:56:36.249Z,73.14
2018-11-22T09:59:09.712Z,73.03
2018-11-22T10:01:43.861Z,72.77
2018-11-22T10:04:19.704Z,72.33
2018-11-22T10:06:53.468Z,71.26
2018-11-22T10:09:27.590Z,70.75
2018-11-22T10:12:01.448Z,70.04
2018-11-22T10:14:36.032Z,70.53
2018-11-22T10:17:09.038Z,70.28
2018-11-22T10:19:42.161Z,70.71
2018-11-22T10:22:15.429Z,70.92
2018-11-22T10:24:49.425Z,70.07
2018-11-22T10:27:22.506Z,69.92
2018-11-22T10:30:12.678Z,70.08
2018-11-22T10:32:52.156Z,70.02
2018-11-22T10:35:28.640Z,69.96
2018-11-22T10:38:02.763Z,69.74
2018-11-22T10:40:39.032Z,70.03
2018-11-22T10:43:12.408Z,69.94
2018-11-22T10:45:45.693Z,69.83
2018-11-22T10:48:21.920Z,69.91
2018-11-22T10:50:55.392Z,69.69
2018-11-22T10:53:30.324Z,69.59
2018-11-22T10:56:05.145Z,69.29
2018-11-22T10:58:38.701Z,69.37
2018-11-22T11:01:35.400Z,69.19
2018-11-22T11:04:26.529Z,69.28
2018-11-22T11:07:05.838Z,69.29
2018-11-22T11:09:39.023Z,69.43
2018-11-22T11:12:12.458Z,69.30
2018-11-22T11:14:45.243Z,69.29
2018-11-22T11:17:19.392Z,69.27
2018-11-22T11:19:53.873Z,69.14
2018-11-22T11:22:28.705Z,69.30
2018-11-22T11:25:05.134Z,68.94
2018-11-22T11:27:40.914Z,69.05
2018-11-22T11:30:19.345Z,68.85
2018-11-22T11:32:53.245Z,68.49
2018-11-22T11:35:26.964Z,67.53
2018-11-22T11:38:01.352Z,66.98
2018-11-22T11:40:37.644Z,66.79
2018-11-22T11:43:16.484Z,66.63
2018-11-22T11:45:51.530Z,66.45
2018-11-22T11:48:25.585Z,66.48
2018-11-22T11:51:01.045Z,66.17
2018-11-22T11:53:41.524Z,65.75
2018-11-22T11:56:17.111Z,65.74
2018-11-22T11:58:49.964Z,66.04
2018-11-22T12:01:23.905Z,65.39
2018-11-22T12:03:58.762Z,65.26
2018-11-22T12:06:35.157Z,65.14
2018-11-22T12:09:12.196Z,64.79
2018-11-22T12:11:45.149Z,65.00
2018-11-22T12:14:19.661Z,64.74
2018-11-22T12:16:53.786Z,64.58
2018-11-22T12:19:26.976Z,64.55
2018-11-22T12:22:02.163Z,64.58
2018-11-22T12:24:34.925Z,64.97
2018-11-22T12:27:08.600Z,64.92
2018-11-22T12:29:45.048Z,64.54
2018-11-22T12:32:24.150Z,64.59
2018-11-22T12:34:59.345Z,64.16
2018-11-22T12:37:43.112Z,64.24
2018-11-22T12:40:17.332Z,63.96
2018-11-22T12:42:51.333Z,64.29
2018-11-22T12:45:28.714Z,63.97
2018-11-22T12:48:03.235Z,64.14
2018-11-22T12:50:38.847Z,64.34
2018-11-22T12:53:17.092Z,64.50
2018-11-22T12:55:51.997Z,64.35
2018-11-22T12:58:28.078Z,64.09
2018-11-22T13:01:02.088Z,64.46
2018-11-22T13:03:37.849Z,64.54
2018-11-22T13:06:14.908Z,64.64
2018-11-22T13:08:48.725Z,64.83
2018-11-22T13:11:22.874Z,64.81
2018-11-22T13:14:02.599Z,64.93
2018-11-22T13:16:38.055Z,65.16
2018-11-22T13:19:14.359Z,65.29
2018-11-22T13:21:49.664Z,65.42
2018-11-22T13:24:25.148Z,65.62
2018-11-22T13:26:59.276Z,65.75
2018-11-22T13:29:33.419Z,65.84
2018-11-22T13:32:07.248Z,65.97
2018-11-22T13:34:42.618Z,66.07
2018-11-22T13:37:18.556Z,66.23
2018-11-22T13:39:55.761Z,66.20
2018-11-22T13:42:34.062Z,66.24
2018-11-22T13:45:17.001Z,66.23
2018-11-22T13:47:52.246Z,66.34
2018-11-22T13:50:32.793Z,66.29
2018-11-22T13:53:07.924Z,66.25
2018-11-22T13:55:45.965Z,66.32
2018-11-22T13:58:20.199Z,66.27
2018-11-22T14:00:56.520Z,66.14
2018-11-22T14:03:33.502Z,66.37
2018-11-22T14:06:07.829Z,66.47
2018-11-22T14:08:45.076Z,66.41
2018-11-22T14:11:19.402Z,66.59
2018-11-22T14:13:54.717Z,66.77
2018-11-22T14:16:27.663Z,66.89
2018-11-22T14:19:04.846Z,66.86
2018-11-22T14:21:40.033Z,66.71
2018-11-22T14:24:18.403Z,66.78
2018-11-22T14:26:51.852Z,66.73
2018-11-22T14:29:30.548Z,66.44
2018-11-22T14:32:05.373Z,66.45
2018-11-22T14:34:39.360Z,65.83
2018-11-22T14:37:18.221Z,64.53
2018-11-22T14:39:51.586Z,64.14
2018-11-22T14:42:26.303Z,63.61
2018-11-22T14:45:00.556Z,62.75
2018-11-22T14:47:38.652Z,62.63
2018-11-22T14:50:40.076Z,62.44
2018-11-22T14:53:22.257Z,63.07
2018-11-22T14:55:56.827Z,63.46
2018-11-22T14:58:31.801Z,63.88
2018-11-22T15:01:07.287Z,64.45
2018-11-22T15:03:44.892Z,64.51
2018-11-22T15:06:21.480Z,64.49
2018-11-22T15:08:54.616Z,64.81
2018-11-22T15:11:34.193Z,65.01
2018-11-22T15:14:08.667Z,65.29
2018-11-22T15:16:42.525Z,65.52
2018-11-22T15:19:17.117Z,65.70
2018-11-22T15:21:51.489Z,66.00
2018-11-22T15:24:25.397Z,66.35
2018-11-22T15:27:00.985Z,67.06
2018-11-22T15:29:37.256Z,67.78
2018-11-22T15:32:12.351Z,68.28
2018-11-22T15:34:48.658Z,68.60
2018-11-22T15:37:23.446Z,68.67
2018-11-22T15:39:58.657Z,68.90
2018-11-22T15:42:33.206Z,69.56
2018-11-22T15:45:14.223Z,70.35
2018-11-22T15:47:48.543Z,70.61
2018-11-22T15:50:24.223Z,69.88
2018-11-22T15:52:59.860Z,69.69
2018-11-22T15:55:33.817Z,69.86
2018-11-22T15:58:10.540Z,70.10
2018-11-22T16:00:43.854Z,69.88
2018-11-22T16:03:21.389Z,70.25
2018-11-22T16:05:57.088Z,70.16
2018-11-22T16:08:30.328Z,70.18
2018-11-22T16:11:05.138Z,70.23
2018-11-22T16:13:39.718Z,70.26
2018-11-22T16:16:14.864Z,70.38
2018-11-22T16:18:51.232Z,70.69
2018-11-22T16:21:25.106Z,71.69
2018-11-22T16:23:58.794Z,71.62
2018-11-22T16:26:32.836Z,72.46
2018-11-22T16:29:07.267Z,73.37
2018-11-22T16:31:41.930Z,73.42
2018-11-22T16:34:29.233Z,73.76
2018-11-22T16:37:13.306Z,75.04
2018-11-22T16:39:47.867Z,74.81
2018-11-22T16:42:29.164Z,75.42
2018-11-22T16:45:19.360Z,75.74
2018-11-22T16:47:54.302Z,76.53
2018-11-22T16:50:29.677Z,76.89
2018-11-22T16:53:07.171Z,78.35
2018-11-22T16:55:47.288Z,78.49
2018-11-22T16:58:22.091Z,79.21
2018-11-22T17:00:57.701Z,80.10
2018-11-22T17:03:32.552Z,80.76
2018-11-22T17:06:08.347Z,80.96
2018-11-22T17:08:41.478Z,81.46
2018-11-22T17:11:15.886Z,81.60
2018-11-22T17:13:52.593Z,81.56
2018-11-22T17:16:27.759Z,82.10
2018-11-22T17:19:03.984Z,82.61
2018-11-22T17:21:37.312Z,82.79
2018-11-22T17:24:16.684Z,82.60
2018-11-22T17:26:51.225Z,82.98
2018-11-22T17:29:24.269Z,83.31
2018-11-22T17:31:57.675Z,83.62
2018-11-22T17:34:33.868Z,83.75
2018-11-22T17:37:10.566Z,83.63
2018-11-22T17:39:45.906Z,84.04
2018-11-22T17:42:26.169Z,84.01
2018-11-22T17:45:13.643Z,83.94
2018-11-22T17:47:48.249Z,84.36
2018-11-22T17:50:27.326Z,83.78
2018-11-22T17:53:04.886Z,83.84
2018-11-22T17:55:39.852Z,83.92
2018-11-22T17:58:14.692Z,83.85
2018-11-22T18:00:51.136Z,83.74
2018-11-22T18:03:28.901Z,83.79
2018-11-22T18:06:07.420Z,83.98
2018-11-22T18:08:48.733Z,83.86
2018-11-22T18:11:21.995Z,83.71
2018-11-22T18:14:06.641Z,83.65
2018-11-22T18:16:39.986Z,83.88
2018-11-22T18:19:17.598Z,84.00
2018-11-22T18:21:55.361Z,84.18
2018-11-22T18:24:28.624Z,84.43
2018-11-22T18:27:11.610Z,84.81
2018-11-22T18:29:45.800Z,84.99
2018-11-22T18:32:19.744Z,84.81
2018-11-22T18:34:55.971Z,84.47
2018-11-22T18:37:32.997Z,84.89
2018-11-22T18:40:27.014Z,85.12
2018-11-22T18:43:02.492Z,85.32
2018-11-22T18:46:05.980Z,85.09
2018-11-22T18:48:39.976Z,84.87
2018-11-22T18:51:17.342Z,85.20
2018-11-22T18:53:53.669Z,85.81
2018-11-22T18:56:36.995Z,85.72
2018-11-22T19:00:03.980Z,85.74
2018-11-22T19:02:37.179Z,85.92
2018-11-22T19:05:14.793Z,86.10
2018-11-22T19:07:50.650Z,86.27
2018-11-22T19:10:30.952Z,86.69
2018-11-22T19:13:07.513Z,86.97
2018-11-22T19:15:58.080Z,87.16
2018-11-22T19:18:37.749Z,87.59
2018-11-22T19:21:11.481Z,87.46
2018-11-22T19:23:45.816Z,87.50
2018-11-22T19:26:24.315Z,87.65
2018-11-22T19:28:57.966Z,87.47
2018-11-22T19:31:32.740Z,87.44
2018-11-22T19:34:09.502Z,87.27
2018-11-22T19:36:45.518Z,87.34
2018-11-22T19:39:21.973Z,87.17
2018-11-22T19:41:55.824Z,87.06
2018-11-22T19:44:30.787Z,87.32
2018-11-22T19:47:08.325Z,87.36
2018-11-22T19:49:41.933Z,87.44
2018-11-22T19:52:16.569Z,87.25
2018-11-22T19:54:54.950Z,87.26
2018-11-22T19:57:30.078Z,87.27
2018-11-22T20:00:15.999Z,87.16
2018-11-22T20:02:50.627Z,87.15
2018-11-22T20:05:26.705Z,87.46
2018-11-22T20:08:04.131Z,87.52
2018-11-22T20:10:44.118Z,87.54
2018-11-22T20:13:24.316Z,87.58
2018-11-22T20:15:59.208Z,87.68
2018-11-22T20:18:36.595Z,87.68
2018-11-22T20:21:13.236Z,87.66
2018-11-22T20:23:48.943Z,87.46
2018-11-22T20:26:24.697Z,87.30
2018-11-22T20:28:59.398Z,87.26
2018-11-22T20:31:33.139Z,87.28
2018-11-22T20:34:08.022Z,87.31
2018-11-22T20:36:43.261Z,87.27
2018-11-22T20:39:18.352Z,87.45
2018-11-22T20:41:51.862Z,87.46
2018-11-22T20:44:25.529Z,87.53
2018-11-22T20:47:02.961Z,87.34
2018-11-22T20:49:41.493Z,87.24
2018-11-22T20:52:16.384Z,87.35
2018-11-22T20:54:51.680Z,87.62
2018-11-22T20:57:28.089Z,87.66
2018-11-22T21:00:01.358Z,87.87
2018-11-22T21:02:38.677Z,88.00
2018-11-22T21:05:16.055Z,88.00
2018-11-22T21:07:49.942Z,88.19
2018-11-22T21:10:26.425Z,88.27
2018-11-22T21:13:00.760Z,88.33
2018-11-22T21:15:37.243Z,88.38
2018-11-22T21:18:10.490Z,88.31
2018-11-22T21:20:47.980Z,88.45
2018-11-22T21:23:22.603Z,88.76
2018-11-22T21:25:57.829Z,88.98
2018-11-22T21:28:33.940Z,89.04
2018-11-22T21:31:08.224Z,89.06
2018-11-22T21:33:42.426Z,88.97
2018-11-22T21:36:17.450Z,88.88
2018-11-22T21:38:56.744Z,88.73
2018-11-22T21:41:30.818Z,88.79
2018-11-22T21:44:06.444Z,88.86
2018-11-22T21:46:41.345Z,88.93
2018-11-22T21:49:17.821Z,89.03
2018-11-22T21:51:54.167Z,89.13
2018-11-22T21:54:28.264Z,89.48
2018-11-22T21:57:02.474Z,89.52
2018-11-22T21:59:37.922Z,89.41
2018-11-22T22:02:18.197Z,89.22
2018-11-22T22:04:51.453Z,89.33
2018-11-22T22:07:28.046Z,89.42
2018-11-22T22:10:07.300Z,89.25
2018-11-22T22:12:41.325Z,89.15
2018-11-22T22:15:21.605Z,89.12
2018-11-22T22:17:54.576Z,89.08
2018-11-22T22:20:31.179Z,89.22
2018-11-22T22:23:07.156Z,89.19
2018-11-22T22:25:46.465Z,89.21
2018-11-22T22:28:19.803Z,89.36
2018-11-22T22:30:52.708Z,89.35
2018-11-22T22:33:25.765Z,89.59
2018-11-22T22:35:59.750Z,89.61
2018-11-22T22:38:35.903Z,89.69
2018-11-22T22:41:09.183Z,89.78
2018-11-22T22:43:42.652Z,89.80
2018-11-22T22:46:15.845Z,89.99
2018-11-22T22:48:49.713Z,89.92
2018-11-22T22:51:24.847Z,89.83
2018-11-22T22:53:59.213Z,89.91
2018-11-22T22:56:32.429Z,90.04
2018-11-22T22:59:07.022Z,89.99
2018-11-22T23:01:39.901Z,89.89
2018-11-22T23:04:13.883Z,89.79
2018-11-22T23:06:48.939Z,89.80
2018-11-22T23:09:23.518Z,89.78
2018-11-22T23:11:57.559Z,89.55
2018-11-22T23:14:32.125Z,89.53
2018-11-22T23:17:16.628Z,89.70
2018-11-22T23:19:52.297Z,89.63
2018-11-22T23:22:26.378Z,89.81
2018-11-22T23:25:02.770Z,89.79
2018-11-22T23:27:36.916Z,89.91
2018-11-22T23:30:19.953Z,89.88
2018-11-22T23:32:59.196Z,89.75
2018-11-22T23:35:32.923Z,89.58
2018-11-22T23:38:08.383Z,89.64
2018-11-22T23:40:41.821Z,89.76
2018-11-22T23:43:14.699Z,89.87
2018-11-22T23:45:48.325Z,89.88
2018-11-22T23:48:23.598Z,89.89
2018-11-22T23:50:57.332Z,89.96
2018-11-22T23:53:30.755Z,90.05
2018-11-22T23:56:04.825Z,90.20
2018-11-22T23:58:37.798Z,90.26
